Time;durP1;ratioP1;P1;durP2;ratioP2;P2;SDS_P1;SDS_P2;PMS_P1;PMS_P2;Temp;Humidity;BMP_temperature;BMP_pressure;BME280_temperature;BME280_humidity;BME280_pressure;Samples;Min_cycle;Max_cycle;Signal;HPM_P1;HPM_P2
2022/07/27 00:01:36;;;;;;;10.30;9.30;;;;;;;14.81;100.00;98765.90;105219;1271;62029;-69
2022/07/27 00:04:02;;;;;;;9.20;8.40;;;;;;;14.82;100.00;98765.11;105260;1271;62164;-70
2022/07/27 00:06:28;;;;;;;9.10;8.10;;;;;;;14.81;100.00;98765.77;105220;1271;62725;-71
2022/07/27 00:08:54;;;;;;;10.50;9.20;;;;;;;14.78;100.00;98763.91;104965;1272;62166;-71
2022/07/27 00:11:20;;;;;;;9.20;8.30;;;;;;;14.78;100.00;98757.77;105042;1271;62190;-70
2022/07/27 00:13:46;;;;;;;10.50;8.80;;;;;;;14.77;100.00;98761.86;105248;1268;62116;-71
2022/07/27 00:16:13;;;;;;;9.90;8.90;;;;;;;14.70;100.00;98758.30;105242;1269;62058;-70
2022/07/27 00:18:39;;;;;;;10.50;9.30;;;;;;;14.62;100.00;98754.16;105214;1269;62281;-70
2022/07/27 00:21:05;;;;;;;10.10;8.90;;;;;;;14.61;100.00;98754.44;105277;1271;62469;-70
2022/07/27 00:23:32;;;;;;;10.90;9.40;;;;;;;14.65;100.00;98761.73;105240;1269;62176;-69
2022/07/27 00:25:58;;;;;;;7.80;7.10;;;;;;;14.70;100.00;98757.89;105253;1268;77116;-70
2022/07/27 00:28:24;;;;;;;8.90;7.90;;;;;;;14.74;100.00;98759.58;105226;1268;62076;-70
2022/07/27 00:30:50;;;;;;;9.20;8.30;;;;;;;14.69;100.00;98759.95;105225;1268;62183;-70
2022/07/27 00:33:16;;;;;;;11.10;8.10;;;;;;;14.69;100.00;98757.84;105253;1269;62017;-69
2022/07/27 00:35:42;;;;;;;10.40;9.00;;;;;;;14.71;100.00;98757.34;105261;1268;62181;-69
2022/07/27 00:38:08;;;;;;;11.40;10.00;;;;;;;14.74;100.00;98759.76;105245;1268;62190;-70
2022/07/27 00:40:34;;;;;;;12.60;9.20;;;;;;;14.81;100.00;98765.17;104982;1271;62462;-70
2022/07/27 00:42:59;;;;;;;10.90;9.90;;;;;;;14.85;100.00;98767.38;105242;1268;62161;-70
2022/07/27 00:45:26;;;;;;;10.10;9.10;;;;;;;14.87;100.00;98771.32;105107;1271;62251;-70
2022/07/27 00:47:51;;;;;;;8.80;7.90;;;;;;;14.87;100.00;98769.45;105343;1269;61982;-70
2022/07/27 00:50:17;;;;;;;10.40;8.90;;;;;;;14.86;100.00;98767.05;105351;1271;62164;-70
2022/07/27 00:52:44;;;;;;;10.60;9.10;;;;;;;14.89;100.00;98769.27;105290;1268;62052;-71
2022/07/27 00:55:10;;;;;;;10.90;9.70;;;;;;;14.99;100.00;98768.25;105244;1269;62177;-71
2022/07/27 00:57:36;;;;;;;10.70;9.70;;;;;;;14.99;100.00;98780.29;105249;1270;62193;-71
2022/07/27 01:00:04;;;;;;;9.80;8.90;;;;;;;14.93;100.00;98779.88;105304;1271;62116;-69
2022/07/27 01:02:30;;;;;;;11.00;8.30;;;;;;;14.85;100.00;98776.05;105318;1271;62094;-71
2022/07/27 01:04:56;;;;;;;8.10;7.30;;;;;;;14.79;100.00;98770.77;105221;1270;62590;-69
2022/07/27 01:07:24;;;;;;;9.20;8.10;;;;;;;14.74;100.00;98770.85;105022;1271;62163;-70
2022/07/27 01:09:57;;;;;;;9.70;8.40;;;;;;;14.70;100.00;98770.98;105168;1270;62180;-70
2022/07/27 01:12:25;;;;;;;9.70;7.90;;;;;;;14.68;100.00;98770.02;105217;1270;77307;-70
2022/07/27 01:14:54;;;;;;;;;;;;;;;14.70;100.00;98767.95;105428;1270;70390;-68
2022/07/27 01:17:20;;;;;;;10.30;8.90;;;;;;;14.70;100.00;98770.58;105219;1270;73613;-70
2022/07/27 01:19:46;;;;;;;11.00;9.90;;;;;;;14.64;100.00;98777.92;105087;1271;62109;-71
2022/07/27 01:22:13;;;;;;;10.60;9.60;;;;;;;14.57;100.00;98770.69;105361;1270;62103;-71
2022/07/27 01:24:39;;;;;;;9.60;8.60;;;;;;;14.57;100.00;98773.36;105282;1271;62276;-70
2022/07/27 01:27:06;;;;;;;9.90;8.90;;;;;;;14.61;100.00;98770.20;105328;1271;62119;-70
2022/07/27 01:29:34;;;;;;;11.60;9.20;;;;;;;14.67;100.00;98770.17;105407;1270;62190;-70
2022/07/27 01:32:01;;;;;;;14.30;11.00;;;;;;;14.69;100.00;98770.18;105290;1270;62177;-71
2022/07/27 01:34:27;;;;;;;13.50;9.80;;;;;;;14.64;100.00;98770.80;105337;1271;62107;-71
2022/07/27 01:36:53;;;;;;;12.60;9.10;;;;;;;14.59;100.00;98767.91;105297;1271;62183;-70
2022/07/27 01:39:19;;;;;;;10.40;9.30;;;;;;;14.54;100.00;98765.95;105259;1268;62194;-71
2022/07/27 01:41:46;;;;;;;10.40;9.20;;;;;;;14.49;100.00;98769.39;104995;1271;62388;-70
2022/07/27 01:44:12;;;;;;;10.30;9.30;;;;;;;14.43;100.00;98772.55;105274;1271;62064;-74
2022/07/27 01:46:38;;;;;;;9.90;8.80;;;;;;;14.42;100.00;98776.41;105289;1269;62130;-70
2022/07/27 01:49:04;;;;;;;9.40;8.50;;;;;;;14.41;100.00;98774.58;105250;1271;62039;-70
2022/07/27 01:51:31;;;;;;;11.20;8.10;;;;;;;14.41;100.00;98776.18;105333;1268;62143;-69
2022/07/27 01:53:56;;;;;;;10.60;8.50;;;;;;;14.41;100.00;98780.48;105258;1268;62190;-70
2022/07/27 01:56:23;;;;;;;11.70;8.10;;;;;;;14.42;100.00;98788.07;105202;1269;62068;-70
2022/07/27 01:58:49;;;;;;;8.90;7.70;;;;;;;14.40;100.00;98792.89;105289;1268;62183;-70
2022/07/27 02:01:15;;;;;;;10.40;8.20;;;;;;;14.38;100.00;98790.36;105212;1268;69761;-70
2022/07/27 02:03:41;;;;;;;9.50;8.60;;;;;;;14.34;100.00;98785.73;105237;1271;62046;-71
2022/07/27 02:06:08;;;;;;;7.70;7.00;;;;;;;14.34;100.00;98785.54;105222;1268;62303;-71
2022/07/27 02:08:34;;;;;;;9.70;7.40;;;;;;;14.35;100.00;98779.02;105268;1268;62171;-71
2022/07/27 02:13:48;;;;;;;9.40;7.40;;;;;;;14.28;100.00;98785.67;105222;1269;69285;-71
2022/07/27 02:16:15;;;;;;;9.10;7.60;;;;;;;14.30;100.00;98784.46;105052;1269;73348;-70
2022/07/27 02:18:41;;;;;;;9.90;8.60;;;;;;;14.28;100.00;98786.75;105227;1268;62187;-70
2022/07/27 02:21:09;;;;;;;11.10;9.10;;;;;;;14.19;100.00;98790.04;105189;1268;62098;-71
2022/07/27 02:23:37;;;;;;;8.00;6.20;;;;;;;14.13;100.00;98792.67;105250;1268;75992;-69
2022/07/27 02:26:05;;;;;;;7.90;7.20;;;;;;;14.07;100.00;98796.55;105286;1268;70288;-69
2022/07/27 02:28:31;;;;;;;8.70;8.00;;;;;;;13.99;100.00;98794.23;105151;1271;73594;-69
2022/07/27 02:30:57;;;;;;;8.30;7.20;;;;;;;13.83;100.00;98798.73;105247;1268;62095;-68
2022/07/27 02:33:23;;;;;;;7.90;7.00;;;;;;;13.72;100.00;98797.17;105249;1268;62055;-69
2022/07/27 02:35:49;;;;;;;9.20;8.00;;;;;;;13.71;100.00;98804.41;105237;1268;62082;-70
2022/07/27 02:38:15;;;;;;;8.80;8.10;;;;;;;13.75;100.00;98803.48;105248;1268;62179;-69
2022/07/27 02:40:41;;;;;;;8.70;7.80;;;;;;;13.75;100.00;98800.19;105218;1268;62116;-70
2022/07/27 02:43:07;;;;;;;8.70;6.70;;;;;;;13.72;100.00;98805.42;105236;1268;62181;-70
2022/07/27 02:45:33;;;;;;;7.10;6.40;;;;;;;13.71;100.00;98806.05;105232;1268;62088;-70
2022/07/27 02:47:59;;;;;;;7.10;6.40;;;;;;;13.71;100.00;98811.05;105235;1268;62068;-70
2022/07/27 02:50:26;;;;;;;7.20;5.40;;;;;;;13.70;100.00;98812.04;105277;1268;62348;-70
2022/07/27 02:52:51;;;;;;;6.50;5.30;;;;;;;13.63;100.00;98813.64;105228;1268;62084;-70
2022/07/27 02:55:18;;;;;;;8.00;6.80;;;;;;;13.55;100.00;98815.01;104957;1271;62123;-70
2022/07/27 02:57:44;;;;;;;9.40;7.10;;;;;;;13.48;100.00;98815.63;104941;1268;62190;-70
2022/07/27 03:00:12;;;;;;;8.60;7.60;;;;;;;13.49;100.00;98816.06;105247;1268;62171;-71
2022/07/27 03:02:39;;;;;;;9.60;8.60;;;;;;;13.50;100.00;98813.27;104976;1271;71775;-70
2022/07/27 03:05:09;;;;;;;11.80;10.70;;;;;;;13.53;100.00;98814.09;104952;1274;62149;-70
2022/07/27 03:07:36;;;;;;;11.50;10.40;;;;;;;13.54;100.00;98817.92;104996;1274;62123;-72
2022/07/27 03:10:03;;;;;;;10.60;9.60;;;;;;;13.56;100.00;98821.72;105341;1274;76245;-72
2022/07/27 03:12:30;;;;;;;11.60;10.00;;;;;;;13.51;100.00;98822.96;104947;1274;69212;-72
2022/07/27 03:14:56;;;;;;;9.60;8.60;;;;;;;13.51;100.00;98822.33;104933;1272;62084;-72
2022/07/27 03:17:22;;;;;;;8.10;7.40;;;;;;;13.51;100.00;98825.64;104910;1274;62276;-72
2022/07/27 03:19:51;;;;;;;10.60;8.10;;;;;;;13.51;100.00;98825.46;104950;1274;62263;-72
2022/07/27 03:22:17;;;;;;;8.20;7.10;;;;;;;13.51;100.00;98833.68;104915;1274;76827;-72
2022/07/27 03:24:43;;;;;;;8.20;7.00;;;;;;;13.56;100.00;98838.66;104918;1274;62369;-71
2022/07/27 03:27:09;;;;;;;9.00;8.00;;;;;;;13.64;100.00;98836.61;104952;1274;62081;-71
2022/07/27 03:29:35;;;;;;;8.90;7.00;;;;;;;13.68;100.00;98835.39;104957;1273;62254;-71
2022/07/27 03:32:01;;;;;;;8.80;7.20;;;;;;;13.73;100.00;98834.39;104906;1274;62147;-71
2022/07/27 03:34:27;;;;;;;8.70;7.30;;;;;;;13.75;100.00;98833.40;104957;1273;62210;-72
2022/07/27 03:36:53;;;;;;;10.20;7.80;;;;;;;13.78;100.00;98831.52;105134;1268;62125;-72
2022/07/27 03:39:19;;;;;;;8.60;7.80;;;;;;;13.83;100.00;98834.13;105247;1269;62078;-72
2022/07/27 03:41:45;;;;;;;10.20;7.20;;;;;;;13.92;100.00;98837.46;105262;1269;62186;-72
2022/07/27 03:44:11;;;;;;;8.50;7.40;;;;;;;14.20;100.00;98837.63;105020;1272;77077;-75
2022/07/27 03:46:37;;;;;;;7.90;7.20;;;;;;;14.57;100.00;98834.84;105221;1268;62102;-73
2022/07/27 03:49:03;;;;;;;12.20;7.40;;;;;;;14.97;100.00;98827.28;105233;1269;62114;-71
2022/07/27 03:51:29;;;;;;;11.50;7.80;;;;;;;15.39;100.00;98828.19;105213;1268;62164;-71
2022/07/27 03:53:55;;;;;;;7.50;6.60;;;;;;;15.79;100.00;98827.67;105251;1268;62121;-72
2022/07/27 03:56:21;;;;;;;8.60;6.80;;;;;;;16.16;100.00;98823.23;105253;1268;61986;-71
2022/07/27 03:58:47;;;;;;;8.70;6.50;;;;;;;16.52;100.00;98816.95;104971;1271;62155;-73
2022/07/27 04:01:13;;;;;;;9.20;6.30;;;;;;;16.97;100.00;98816.11;105273;1271;62177;-73
2022/07/27 04:03:39;;;;;;;7.50;5.90;;;;;;;17.42;100.00;98815.01;105252;1268;61986;-72
2022/07/27 04:06:05;;;;;;;7.30;6.10;;;;;;;17.79;100.00;98815.66;105201;1271;62182;-73
2022/07/27 04:08:31;;;;;;;11.80;6.50;;;;;;;18.09;100.00;98815.39;105186;1271;62200;-72
2022/07/27 04:10:57;;;;;;;7.20;6.00;;;;;;;18.39;100.00;98816.85;105205;1271;62179;-72
2022/07/27 04:13:23;;;;;;;7.70;6.10;;;;;;;18.76;100.00;98813.36;105213;1269;62183;-72
2022/07/27 04:15:49;;;;;;;9.10;7.10;;;;;;;19.11;100.00;98818.55;104938;1271;62281;-71
2022/07/27 04:18:15;;;;;;;7.80;6.60;;;;;;;19.47;100.00;98821.38;105233;1269;62094;-71
2022/07/27 04:20:41;;;;;;;6.80;6.10;;;;;;;19.74;100.00;98818.74;105282;1268;62186;-72
2022/07/27 04:23:07;;;;;;;6.90;6.10;;;;;;;19.99;100.00;98817.84;105244;1268;62116;-73
2022/07/27 04:25:33;;;;;;;8.50;6.30;;;;;;;20.08;100.00;98818.70;105255;1268;61995;-72
2022/07/27 04:27:59;;;;;;;8.30;6.10;;;;;;;19.80;100.00;98819.77;104979;1271;62130;-71
2022/07/27 04:30:24;;;;;;;7.90;7.10;;;;;;;19.36;100.00;98820.92;105254;1269;62170;-72
2022/07/27 04:32:51;;;;;;;8.50;7.10;;;;;;;18.98;100.00;98826.83;105278;1270;62177;-73
2022/07/27 04:35:17;;;;;;;9.80;7.50;;;;;;;18.66;100.00;98835.52;105341;1268;62101;-74
2022/07/27 04:37:43;;;;;;;9.80;6.70;;;;;;;18.48;100.00;98838.58;105268;1268;62177;-72
2022/07/27 04:40:09;;;;;;;8.30;6.90;;;;;;;18.40;100.00;98832.02;105271;1268;62134;-73
2022/07/27 04:42:35;;;;;;;8.60;6.50;;;;;;;18.36;100.00;98828.98;105307;1268;73268;-71
2022/07/27 04:45:02;;;;;;;10.10;7.00;;;;;;;18.38;100.00;98834.52;105017;1271;62133;-73
2022/07/27 04:47:28;;;;;;;10.30;7.70;;;;;;;18.57;100.00;98838.17;105014;1271;62327;-71
2022/07/27 04:49:54;;;;;;;9.80;7.70;;;;;;;18.97;100.00;98839.52;105232;1269;62186;-73
2022/07/27 04:52:20;;;;;;;9.60;7.30;;;;;;;19.22;100.00;98839.77;105236;1268;62193;-72
2022/07/27 04:54:53;;;;;;;7.50;6.80;;;;;;;19.60;100.00;98840.45;105229;1269;62190;-71
2022/07/27 04:57:21;;;;;;;7.80;7.00;;;;;;;19.94;100.00;98841.44;105235;1271;62199;-71
2022/07/27 04:59:47;;;;;;;8.10;7.30;;;;;;;20.14;100.00;98839.61;105040;1271;62492;-72
2022/07/27 05:02:13;;;;;;;8.20;7.40;;;;;;;20.64;100.00;98840.67;105237;1271;62152;-73
2022/07/27 05:04:39;;;;;;;9.60;8.60;;;;;;;21.04;100.00;98839.79;105237;1271;62094;-72
2022/07/27 05:07:05;;;;;;;9.70;8.70;;;;;;;21.38;100.00;98848.17;105232;1269;65693;-72
2022/07/27 05:09:31;;;;;;;11.10;9.90;;;;;;;21.69;100.00;98846.52;105262;1269;62045;-73
2022/07/27 05:11:56;;;;;;;12.90;11.70;;;;;;;21.86;100.00;98843.98;105238;1271;62107;-73
2022/07/27 05:14:22;;;;;;;13.40;11.90;;;;;;;21.89;100.00;98845.21;105286;1271;62174;-73
2022/07/27 05:16:49;;;;;;;13.80;12.30;;;;;;;22.09;100.00;98846.90;105212;1271;74492;-73
2022/07/27 05:19:15;;;;;;;14.50;13.00;;;;;;;22.34;100.00;98847.29;104950;1271;62258;-73
2022/07/27 05:21:41;;;;;;;15.70;14.10;;;;;;;22.32;100.00;98854.31;105238;1271;62180;-72
2022/07/27 05:24:08;;;;;;;16.50;14.00;;;;;;;22.36;100.00;98854.98;105277;1268;62141;-72
2022/07/27 05:26:35;;;;;;;17.50;14.80;;;;;;;22.53;100.00;98848.25;105299;1268;62167;-73
2022/07/27 05:29:01;;;;;;;18.60;15.50;;;;;;;22.75;100.00;98842.55;105409;1268;62057;-72
2022/07/27 05:31:26;;;;;;;20.20;18.00;;;;;;;22.83;100.00;98848.86;105851;1268;62142;-72
2022/07/27 05:33:52;;;;;;;25.30;21.10;;;;;;;22.87;100.00;98844.95;105982;1268;62139;-73
2022/07/27 05:36:18;;;;;;;25.10;22.70;;;;;;;22.47;100.00;98845.48;105354;1268;62094;-73
2022/07/27 05:38:44;;;;;;;22.70;20.30;;;;;;;22.27;100.00;98845.95;105003;1269;62261;-75
2022/07/27 05:41:10;;;;;;;26.40;22.50;;;;;;;22.39;100.00;98850.85;105278;1269;62092;-75
2022/07/27 05:43:36;;;;;;;23.10;20.60;;;;;;;22.41;100.00;98853.52;105120;1269;62156;-71
2022/07/27 05:46:02;;;;;;;22.20;19.90;;;;;;;22.23;100.00;98855.02;105261;1271;76122;-72
2022/07/27 05:48:27;;;;;;;24.00;21.50;;;;;;;22.09;100.00;98851.78;105230;1268;62075;-72
2022/07/27 05:50:53;;;;;;;23.10;20.70;;;;;;;22.39;100.00;98853.04;105260;1269;62190;-73
2022/07/27 05:53:19;;;;;;;24.70;21.30;;;;;;;22.97;100.00;98856.16;105226;1268;62282;-73
2022/07/27 05:55:45;;;;;;;26.70;24.00;;;;;;;22.98;100.00;98858.81;105261;1268;62109;-73
2022/07/27 05:58:11;;;;;;;23.60;21.20;;;;;;;22.58;100.00;98862.15;105231;1268;62186;-73
2022/07/27 06:00:37;;;;;;;25.90;22.00;;;;;;;22.22;100.00;98866.52;105191;1271;62164;-72
2022/07/27 06:03:03;;;;;;;27.80;22.60;;;;;;;21.91;100.00;98869.26;105210;1269;62100;-72
2022/07/27 06:05:29;;;;;;;29.00;24.20;;;;;;;22.01;100.00;98876.39;105255;1268;62591;-72
2022/07/27 06:07:58;;;;;;;26.60;23.50;;;;;;;22.03;100.00;98874.93;105250;1269;62091;-73
2022/07/27 06:10:28;;;;;;;28.10;24.80;;;;;;;22.15;100.00;98870.41;105223;1268;70551;-73
2022/07/27 06:12:54;;;;;;;27.90;24.90;;;;;;;22.23;100.00;98875.30;105232;1268;72094;-73
2022/07/27 06:15:22;;;;;;;26.90;24.00;;;;;;;21.99;100.00;98878.23;105209;1268;62692;-73
2022/07/27 06:17:51;;;;;;;27.40;24.50;;;;;;;21.66;100.00;98880.84;105397;1267;62085;-74
2022/07/27 06:20:17;;;;;;;29.20;25.50;;;;;;;21.40;100.00;98886.30;105243;1268;77326;-75
2022/07/27 06:22:48;;;;;;;27.20;24.40;;;;;;;21.20;100.00;98899.21;105255;1268;69860;-73
2022/07/27 06:25:15;;;;;;;27.20;24.50;;;;;;;21.03;100.00;98902.23;105282;1268;73235;-73
2022/07/27 06:27:41;;;;;;;30.30;26.50;;;;;;;21.02;100.00;98907.20;105223;1268;62213;-73
2022/07/27 06:30:07;;;;;;;29.00;25.70;;;;;;;20.85;100.00;98911.32;105211;1268;62264;-72
2022/07/27 06:32:33;;;;;;;31.60;27.00;;;;;;;20.55;100.00;98909.35;105219;1269;62084;-73
2022/07/27 06:35:00;;;;;;;28.80;25.80;;;;;;;20.37;100.00;98906.71;105251;1268;62112;-72
2022/07/27 06:37:28;;;;;;;30.50;26.80;;;;;;;20.44;100.00;98907.86;105219;1269;62174;-72
2022/07/27 06:39:55;;;;;;;31.40;28.10;;;;;;;20.40;100.00;98906.77;105235;1268;62231;-72
2022/07/27 06:42:21;;;;;;;37.10;30.70;;;;;;;20.33;100.00;98907.58;105328;1268;62171;-73
2022/07/27 06:44:47;;;;;;;32.40;28.40;;;;;;;20.33;100.00;98906.84;105220;1268;62052;-73
2022/07/27 06:47:13;;;;;;;34.50;30.80;;;;;;;20.45;100.00;98909.73;105242;1269;62492;-73
2022/07/27 06:49:39;;;;;;;35.30;31.10;;;;;;;20.56;100.00;98915.77;105242;1268;62024;-73
2022/07/27 06:52:06;;;;;;;36.30;30.70;;;;;;;20.55;100.00;98912.61;105247;1268;62286;-73
2022/07/27 06:54:32;;;;;;;32.70;29.30;;;;;;;20.63;100.00;98912.24;105238;1268;62215;-72
2022/07/27 06:56:58;;;;;;;32.50;29.10;;;;;;;20.72;100.00;98914.30;105254;1268;62169;-73
2022/07/27 06:59:24;;;;;;;36.20;32.30;;;;;;;20.92;100.00;98911.59;105220;1269;62074;-72
2022/07/27 07:01:50;;;;;;;34.70;31.00;;;;;;;21.09;100.00;98907.75;105230;1271;62104;-73
2022/07/27 07:04:16;;;;;;;33.90;29.80;;;;;;;21.21;100.00;98902.54;105294;1268;62104;-73
2022/07/27 07:06:43;;;;;;;33.60;30.20;;;;;;;21.10;100.00;98903.05;105253;1268;76223;-73
2022/07/27 07:09:10;;;;;;;34.50;30.80;;;;;;;21.09;100.00;98909.47;105060;1269;62065;-73
2022/07/27 07:11:36;;;;;;;32.50;29.20;;;;;;;21.08;100.00;98919.63;105347;1268;73294;-72
2022/07/27 07:14:02;;;;;;;34.00;30.50;;;;;;;21.08;100.00;98917.80;105243;1269;62092;-72
2022/07/27 07:16:28;;;;;;;34.60;31.30;;;;;;;21.06;100.00;98919.05;105283;1271;61257;-72
2022/07/27 07:18:55;;;;;;;35.40;31.80;;;;;;;21.16;100.00;98911.96;105000;1271;62106;-73
2022/07/27 07:21:21;;;;;;;34.20;30.80;;;;;;;21.44;100.00;98910.32;105200;1271;62263;-72
2022/07/27 07:23:47;;;;;;;32.20;28.70;;;;;;;21.53;100.00;98909.86;105265;1271;62075;-72
2022/07/27 07:26:13;;;;;;;32.40;29.20;;;;;;;21.45;100.00;98904.90;104975;1271;62163;-72
2022/07/27 07:28:39;;;;;;;34.90;31.30;;;;;;;21.57;100.00;98905.42;105240;1271;62173;-72
2022/07/27 07:31:06;;;;;;;30.40;27.40;;;;;;;21.64;100.00;98910.95;105247;1271;62191;-74
2022/07/27 07:33:32;;;;;;;37.60;31.70;;;;;;;21.69;100.00;98909.02;105260;1271;62199;-75
2022/07/27 07:35:58;;;;;;;33.20;29.60;;;;;;;21.65;100.00;98909.55;105227;1271;62209;-73
2022/07/27 07:38:25;;;;;;;32.30;29.00;;;;;;;21.69;100.00;98910.55;105270;1271;62104;-74
2022/07/27 07:40:51;;;;;;;33.00;29.90;;;;;;;21.63;100.00;98916.42;105292;1271;62619;-75
2022/07/27 07:43:17;;;;;;;33.70;30.30;;;;;;;21.69;100.00;98919.59;105231;1271;62120;-74
2022/07/27 07:45:43;;;;;;;33.40;30.00;;;;;;;21.61;100.00;98923.89;105269;1271;62177;-72
2022/07/27 07:48:10;;;;;;;35.40;31.30;;;;;;;21.63;100.00;98923.98;105264;1271;62099;-73
2022/07/27 07:50:36;;;;;;;33.50;30.00;;;;;;;21.65;100.00;98926.14;105231;1271;62158;-73
2022/07/27 07:53:03;;;;;;;32.70;29.50;;;;;;;21.63;100.00;98924.52;105264;1270;62161;-72
2022/07/27 07:55:29;;;;;;;33.40;30.10;;;;;;;21.58;100.00;98926.98;105281;1271;62368;-74
2022/07/27 07:57:56;;;;;;;31.90;28.80;;;;;;;21.62;100.00;98925.95;105110;1272;62103;-74
2022/07/27 08:00:23;;;;;;;31.70;28.70;;;;;;;21.69;100.00;98927.33;105311;1271;62139;-73
2022/07/27 08:02:51;;;;;;;31.60;28.50;;;;;;;21.67;100.00;98929.02;105389;1271;62065;-71
2022/07/27 08:05:19;;;;;;;33.60;30.20;;;;;;;21.67;100.00;98928.20;105167;1271;77446;-73
2022/07/27 08:07:48;;;;;;;33.30;29.80;;;;;;;21.72;100.00;98930.42;105437;1271;69573;-73
2022/07/27 08:10:17;;;;;;;34.30;30.70;;;;;;;21.82;100.00;98931.11;105257;1271;74380;-71
2022/07/27 08:12:46;;;;;;;34.90;31.50;;;;;;;21.97;100.00;98926.73;105349;1271;62626;-73
2022/07/27 08:15:14;;;;;;;32.90;29.40;;;;;;;22.15;100.00;98926.97;105111;1271;62172;-73
2022/07/27 08:17:42;;;;;;;35.90;30.70;;;;;;;22.30;100.00;98928.23;105281;1271;77122;-73
2022/07/27 08:20:09;;;;;;;32.10;28.90;;;;;;;22.46;100.00;98929.34;105305;1271;69395;-71
2022/07/27 08:22:37;;;;;;;33.30;30.10;;;;;;;22.65;100.00;98929.23;105343;1271;73702;-73
2022/07/27 08:25:07;;;;;;;33.50;30.00;;;;;;;22.87;100.00;98929.91;105335;1271;62184;-72
2022/07/27 08:27:33;;;;;;;33.80;30.30;;;;;;;23.09;100.00;98926.38;105323;1271;62261;-71
2022/07/27 08:30:00;;;;;;;35.70;32.00;;;;;;;23.16;100.00;98929.15;105030;1272;62121;-74
2022/07/27 08:32:27;;;;;;;32.40;29.10;;;;;;;23.03;100.00;98926.83;105297;1271;69365;-72
2022/07/27 08:34:55;;;;;;;33.20;29.90;;;;;;;22.81;100.00;98926.66;104998;1271;73113;-71
2022/07/27 08:37:21;;;;;;;32.60;29.30;;;;;;;22.63;100.00;98933.80;105336;1271;62078;-72
2022/07/27 08:39:48;;;;;;;33.40;30.00;;;;;;;22.54;100.00;98936.11;104979;1272;62116;-72
2022/07/27 08:42:16;;;;;;;33.10;29.80;;;;;;;22.42;100.00;98937.20;105234;1271;62062;-73
2022/07/27 08:44:43;;;;;;;30.10;27.20;;;;;;;22.40;100.00;98938.71;105245;1271;69673;-72
2022/07/27 08:47:10;;;;;;;30.90;27.90;;;;;;;22.32;100.00;98939.13;105229;1271;74423;-73
2022/07/27 08:49:42;;;;;;;32.00;28.70;;;;;;;22.35;100.00;98943.39;105019;1272;62087;-73
2022/07/27 08:52:10;;;;;;;30.00;27.10;;;;;;;22.56;100.00;98941.15;105283;1269;62008;-73
2022/07/27 08:54:40;;;;;;;34.80;27.70;;;;;;;22.77;100.00;98936.18;105250;1271;76222;-72
2022/07/27 08:57:08;;;;;;;29.80;27.00;;;;;;;22.97;100.00;98931.10;105264;1271;70401;-74
2022/07/27 08:59:35;;;;;;;29.10;26.00;;;;;;;23.09;100.00;98934.59;105234;1270;73361;-73
2022/07/27 09:02:01;;;;;;;29.00;26.00;;;;;;;23.06;100.00;98935.66;105235;1271;62201;-73
2022/07/27 09:04:27;;;;;;;31.50;28.30;;;;;;;22.95;100.00;98941.01;105270;1271;62056;-72
2022/07/27 09:06:54;;;;;;;30.20;27.30;;;;;;;22.93;100.00;98934.98;105314;1271;76108;-72
2022/07/27 09:09:21;;;;;;;30.20;27.10;;;;;;;22.86;100.00;98928.77;105019;1274;62098;-72
2022/07/27 09:12:02;;;;;;;29.80;27.00;;;;;;;23.00;100.00;98928.31;105257;1271;73548;-72
2022/07/27 09:14:30;;;;;;;32.60;29.40;;;;;;;23.20;100.00;98928.27;105263;1271;62117;-73
2022/07/27 09:16:56;;;;;;;32.30;29.00;;;;;;;23.24;100.00;98927.64;105292;1271;62419;-72
2022/07/27 09:19:22;;;;;;;33.80;30.20;;;;;;;23.28;100.00;98928.92;105265;1271;63650;-72
2022/07/27 09:21:48;;;;;;;30.80;27.90;;;;;;;23.52;100.00;98922.20;105252;1271;62120;-72
2022/07/27 09:24:15;;;;;;;31.90;28.90;;;;;;;23.81;100.00;98918.14;105237;1271;62299;-72
2022/07/27 09:26:41;;;;;;;31.70;28.60;;;;;;;24.14;100.00;98913.73;105265;1271;62161;-72
2022/07/27 09:29:13;;;;;;;28.80;26.00;;;;;;;24.40;100.00;98915.29;105301;1271;62135;-72
2022/07/27 09:31:47;;;;;;;30.50;27.30;;;;;;;24.60;100.00;98910.18;105279;1271;77180;-72
2022/07/27 09:34:32;;;;;;;29.00;26.30;;;;;;;24.86;100.00;98904.62;105307;1271;69353;-72
2022/07/27 09:37:02;;;;;;;29.30;26.60;;;;;;;25.03;100.00;98901.20;105251;1271;73881;-72
2022/07/27 09:39:28;;;;;;;29.00;26.30;;;;;;;25.00;100.00;98901.34;104990;1274;62100;-71
2022/07/27 09:41:57;;;;;;;29.30;26.40;;;;;;;25.01;100.00;98904.16;105243;1271;62075;-71
2022/07/27 09:44:32;;;;;;;27.60;25.00;;;;;;;25.26;100.00;98898.76;105264;1271;77140;-72
2022/07/27 09:46:58;;;;;;;26.50;23.80;;;;;;;25.21;100.00;98904.30;103574;1271;2354589;-73
2022/07/27 09:49:33;;;;;;;27.90;25.20;;;;;;;25.17;100.00;98896.84;105273;1271;71315;-71
2022/07/27 09:52:01;;;;;;;26.30;23.70;;;;;;;24.91;100.00;98888.69;105283;1271;62074;-71
2022/07/27 09:54:45;;;;;;;28.10;25.30;;;;;;;24.75;100.00;98887.98;105314;1271;62062;-71
2022/07/27 09:57:12;;;;;;;27.90;25.10;;;;;;;24.91;100.00;98889.39;105262;1271;76653;-73
2022/07/27 09:59:39;;;;;;;26.00;23.30;;;;;;;25.10;100.00;98892.39;105081;1272;62093;-71
2022/07/27 10:02:05;;;;;;;25.80;23.20;;;;;;;25.17;100.00;98887.65;105275;1271;61986;-71
2022/07/27 10:04:34;;;;;;;25.60;23.10;;;;;;;25.00;100.00;98897.86;105017;1272;62078;-71
2022/07/27 10:07:00;;;;;;;24.10;21.70;;;;;;;24.93;100.00;98896.77;105406;1271;62168;-73
2022/07/27 10:09:29;;;;;;;23.50;19.40;;;;;;;25.26;100.00;98892.52;105443;1271;62075;-72
2022/07/27 10:11:56;;;;;;;21.70;19.50;;;;;;;25.09;100.00;98896.01;105929;1268;69654;-72
2022/07/27 10:14:22;;;;;;;23.20;17.00;;;;;;;24.80;100.00;98898.33;105642;1271;72958;-72
2022/07/27 10:16:49;;;;;;;21.30;19.20;;;;;;;24.72;100.00;98893.99;105223;1271;62147;-70
2022/07/27 10:19:24;;;;;;;21.00;17.90;;;;;;;24.71;100.00;98894.69;105254;1269;62072;-72
2022/07/27 10:21:51;;;;;;;19.80;17.60;;;;;;;24.92;100.00;98891.88;105325;1269;77459;-71
2022/07/27 10:24:31;;;;;;;16.50;12.80;;;;;;;25.13;100.00;98890.38;105016;1269;62101;-70
2022/07/27 10:26:57;;;;;;;13.80;12.60;;;;;;;25.06;100.00;98895.01;105019;1274;75572;-72
2022/07/27 10:29:24;;;;;;;14.10;12.70;;;;;;;24.99;100.00;98895.64;105266;1269;62042;-72
2022/07/27 10:31:54;;;;;;;14.00;12.70;;;;;;;25.13;100.00;98888.23;105250;1270;62072;-71
2022/07/27 10:34:41;;;;;;;12.90;11.70;;;;;;;25.31;100.00;98892.41;105267;1271;77033;-72
2022/07/27 10:37:16;;;;;;;20.90;14.00;;;;;;;25.47;100.00;98886.37;105250;1271;70327;-72
2022/07/27 10:39:50;;;;;;;11.10;9.90;;;;;;;25.73;100.00;98881.48;105265;1268;73291;-72
2022/07/27 10:42:29;;;;;;;11.50;10.40;;;;;;;25.98;100.00;98878.70;105262;1271;62194;-72
2022/07/27 10:44:58;;;;;;;12.10;11.00;;;;;;;26.16;100.00;98877.04;105284;1271;62066;-71
2022/07/27 10:47:32;;;;;;;9.70;8.60;;;;;;;26.24;100.00;98877.59;105300;1271;76214;-71
2022/07/27 10:50:16;;;;;;;8.40;7.60;;;;;;;26.42;100.00;98876.66;105244;1271;70125;-72
2022/07/27 10:52:51;;;;;;;9.00;7.90;;;;;;;26.58;100.00;98877.75;105264;1271;73235;-72
2022/07/27 10:55:30;;;;;;;13.70;9.80;;;;;;;26.76;100.00;98878.56;105214;1271;62085;-71
2022/07/27 10:58:02;;;;;;;10.90;9.90;;;;;;;26.89;100.00;98876.13;105230;1271;61964;-71
2022/07/27 11:00:49;;;;;;;13.50;9.90;;;;;;;26.79;100.00;98875.63;105233;1271;76131;-72
2022/07/27 11:03:20;;;;;;;10.80;9.70;;;;;;;26.40;100.00;98880.95;105212;1271;69479;-71
2022/07/27 11:06:06;;;;;;;11.90;10.10;;;;;;;26.43;100.00;98881.45;105214;1271;73385;-70
2022/07/27 11:08:36;;;;;;;10.40;9.30;;;;;;;26.57;100.00;98881.79;105302;1271;62097;-72
2022/07/27 11:11:05;;;;;;;8.80;8.10;;;;;;;26.75;100.00;98879.49;105259;1271;62149;-72